createdAt,value
2018-07-03T00:00:23.340Z,19.27
2018-07-03T00:02:16.330Z,19.26
2018-07-03T00:03:16.285Z,19.16
2018-07-03T00:05:09.240Z,19.15
2018-07-03T00:06:09.210Z,19.08
2018-07-03T00:08:02.148Z,18.90
2018-07-03T00:09:02.086Z,18.89
2018-07-03T00:10:55.055Z,18.88
2018-07-03T00:11:55.018Z,18.80
2018-07-03T00:13:48.008Z,18.74
2018-07-03T00:14:47.963Z,18.77
2018-07-03T00:16:41.147Z,18.65
2018-07-03T00:17:41.082Z,18.60
2018-07-03T00:19:34.049Z,18.65
2018-07-03T00:20:34.013Z,18.63
2018-07-03T00:22:26.985Z,18.55
2018-07-03T00:23:26.933Z,18.50
2018-07-03T00:25:20.060Z,18.53
2018-07-03T00:26:20.034Z,18.53
2018-07-03T00:28:13.005Z,18.49
2018-07-03T00:29:12.950Z,18.47
2018-07-03T00:31:05.765Z,18.49
2018-07-03T00:32:05.730Z,18.47
2018-07-03T00:33:58.848Z,18.43
2018-07-03T00:34:58.805Z,18.45
2018-07-03T00:36:51.764Z,18.40
2018-07-03T00:37:51.730Z,18.34
2018-07-03T00:39:44.701Z,18.35
2018-07-03T00:40:44.650Z,18.33
2018-07-03T00:42:37.726Z,18.26
2018-07-03T00:43:37.695Z,18.26
2018-07-03T00:45:30.669Z,18.11
2018-07-03T00:46:30.621Z,18.15
2018-07-03T00:48:23.601Z,18.11
2018-07-03T00:49:23.556Z,18.05
2018-07-03T00:51:16.380Z,18.11
2018-07-03T00:52:16.347Z,17.97
2018-07-03T00:54:09.222Z,18.05
2018-07-03T00:55:09.122Z,17.92
2018-07-03T00:57:02.081Z,17.86
2018-07-03T00:58:02.051Z,17.78
2018-07-03T00:59:55.017Z,17.68
2018-07-03T01:00:54.967Z,17.65
2018-07-03T01:02:48.032Z,17.60
2018-07-03T01:03:47.911Z,17.64
2018-07-03T01:05:40.738Z,17.56
2018-07-03T01:06:40.675Z,17.49
2018-07-03T01:08:33.513Z,17.54
2018-07-03T01:09:33.459Z,17.42
2018-07-03T01:11:26.292Z,17.51
2018-07-03T01:12:26.240Z,17.38
2018-07-03T01:14:19.208Z,17.42
2018-07-03T01:15:19.165Z,17.39
2018-07-03T01:17:12.197Z,17.41
2018-07-03T01:18:12.133Z,17.27
2018-07-03T01:20:05.111Z,17.22
2018-07-03T01:21:05.062Z,17.14
2018-07-03T01:22:58.043Z,17.06
2018-07-03T01:23:58.016Z,17.01
2018-07-03T01:25:51.037Z,16.78
2018-07-03T01:26:50.854Z,16.74
2018-07-03T01:28:43.806Z,16.74
2018-07-03T01:29:43.782Z,16.71
2018-07-03T01:31:36.613Z,16.68
2018-07-03T01:32:36.563Z,16.64
2018-07-03T01:34:29.368Z,16.56
2018-07-03T01:35:29.329Z,16.50
2018-07-03T01:37:22.570Z,16.56
2018-07-03T01:38:22.513Z,16.42
2018-07-03T01:40:15.495Z,16.36
2018-07-03T01:41:15.442Z,16.32
2018-07-03T01:43:08.397Z,16.33
2018-07-03T01:44:08.355Z,16.28
2018-07-03T01:46:01.192Z,16.31
2018-07-03T01:47:01.137Z,16.15
2018-07-03T01:48:54.091Z,16.21
2018-07-03T01:49:54.072Z,16.16
2018-07-03T01:51:46.902Z,16.09
2018-07-03T01:52:46.847Z,16.09
2018-07-03T01:54:39.807Z,15.98
2018-07-03T01:55:39.778Z,15.95
2018-07-03T01:57:32.672Z,15.91
2018-07-03T01:58:32.612Z,15.92
2018-07-03T02:00:25.572Z,15.91
2018-07-03T02:01:25.532Z,15.83
2018-07-03T02:03:18.369Z,15.86
2018-07-03T02:04:18.322Z,15.76
2018-07-03T02:06:11.288Z,15.80
2018-07-03T02:07:11.248Z,15.73
2018-07-03T02:09:04.147Z,15.65
2018-07-03T02:10:04.098Z,15.68
2018-07-03T02:11:56.939Z,15.72
2018-07-03T02:12:56.881Z,15.67
2018-07-03T02:14:49.837Z,15.64
2018-07-03T02:15:49.798Z,15.62
2018-07-03T02:17:42.769Z,15.65
2018-07-03T02:18:42.719Z,15.54
2018-07-03T02:20:35.824Z,15.61
2018-07-03T02:21:35.788Z,15.55
2018-07-03T02:23:28.758Z,15.61
2018-07-03T02:24:28.719Z,15.64
2018-07-03T02:26:21.698Z,15.64
2018-07-03T02:27:21.638Z,15.59
2018-07-03T02:29:14.502Z,15.67
2018-07-03T02:30:14.454Z,15.58
2018-07-03T02:32:07.273Z,15.54
2018-07-03T02:33:07.229Z,15.65
2018-07-03T02:35:00.198Z,15.57
2018-07-03T02:36:00.154Z,15.64
2018-07-03T02:37:53.200Z,15.64
2018-07-03T02:38:53.172Z,15.64
2018-07-03T02:40:46.009Z,15.65
2018-07-03T02:41:45.953Z,15.57
2018-07-03T02:43:38.936Z,15.52
2018-07-03T02:44:38.880Z,15.62
2018-07-03T02:46:31.703Z,15.59
2018-07-03T02:47:31.666Z,15.64
2018-07-03T02:49:24.645Z,15.57
2018-07-03T02:50:24.583Z,15.55
2018-07-03T02:52:17.444Z,15.62
2018-07-03T02:53:17.411Z,15.61
2018-07-03T02:55:11.389Z,15.59
2018-07-03T02:56:11.343Z,15.54
2018-07-03T02:58:04.312Z,15.58
2018-07-03T02:59:04.294Z,15.46
2018-07-03T03:00:57.500Z,15.44
2018-07-03T03:01:57.359Z,15.43
2018-07-03T03:03:50.317Z,15.46
2018-07-03T03:04:50.288Z,15.39
2018-07-03T03:06:43.309Z,15.31
2018-07-03T03:07:43.249Z,15.29
2018-07-03T03:09:36.084Z,15.28
2018-07-03T03:10:36.027Z,15.14
2018-07-03T03:12:29.004Z,15.09
2018-07-03T03:13:28.976Z,15.09
2018-07-03T03:15:21.947Z,15.09
2018-07-03T03:16:21.909Z,15.09
2018-07-03T03:18:14.867Z,14.96
2018-07-03T03:19:14.839Z,14.86
2018-07-03T03:21:07.672Z,14.89
2018-07-03T03:22:07.621Z,14.77
2018-07-03T03:24:00.593Z,14.78
2018-07-03T03:25:00.563Z,14.72
2018-07-03T03:26:53.500Z,14.73
2018-07-03T03:27:53.466Z,14.72
2018-07-03T03:29:46.287Z,14.59
2018-07-03T03:30:46.243Z,14.55
2018-07-03T03:32:39.092Z,14.50
2018-07-03T03:33:39.038Z,14.54
2018-07-03T03:35:32.057Z,14.51
2018-07-03T03:36:31.998Z,14.54
2018-07-03T03:38:24.960Z,14.51
2018-07-03T03:39:24.938Z,14.48
2018-07-03T03:41:17.759Z,14.48
2018-07-03T03:42:17.708Z,14.50
2018-07-03T03:44:10.616Z,14.48
2018-07-03T03:45:10.567Z,14.45
2018-07-03T03:47:03.545Z,14.43
2018-07-03T03:48:03.482Z,14.45
2018-07-03T03:49:57.437Z,14.41
2018-07-03T03:50:57.461Z,14.35
2018-07-03T03:52:50.631Z,14.37
2018-07-03T03:53:50.483Z,14.33
2018-07-03T03:55:43.443Z,14.30
2018-07-03T03:56:43.393Z,14.32
2018-07-03T03:58:36.367Z,14.32
2018-07-03T03:59:36.329Z,14.25
2018-07-03T04:01:29.477Z,14.30
2018-07-03T04:02:29.393Z,14.26
2018-07-03T04:04:22.350Z,14.36
2018-07-03T04:05:22.301Z,14.36
2018-07-03T04:07:15.268Z,14.36
2018-07-03T04:08:15.228Z,14.33
2018-07-03T04:10:08.333Z,14.37
2018-07-03T04:11:08.274Z,14.41
2018-07-03T04:13:01.248Z,14.36
2018-07-03T04:14:01.194Z,14.41
2018-07-03T04:15:54.162Z,14.43
2018-07-03T04:16:54.110Z,14.36
2018-07-03T04:18:47.030Z,14.47
2018-07-03T04:19:46.963Z,14.37
2018-07-03T04:21:40.938Z,14.50
2018-07-03T04:22:40.903Z,14.50
2018-07-03T04:24:33.871Z,14.53
2018-07-03T04:25:33.858Z,14.45
2018-07-03T04:27:26.644Z,14.54
2018-07-03T04:28:26.593Z,14.53
2018-07-03T04:30:19.440Z,14.55
2018-07-03T04:31:19.380Z,14.53
2018-07-03T04:33:12.329Z,14.59
2018-07-03T04:34:12.299Z,14.62
2018-07-03T04:36:05.126Z,14.63
2018-07-03T04:37:05.081Z,14.65
2018-07-03T04:38:58.055Z,14.62
2018-07-03T04:39:58.024Z,14.65
2018-07-03T04:41:50.844Z,14.66
2018-07-03T04:42:50.791Z,14.59
2018-07-03T04:44:43.774Z,14.65
2018-07-03T04:45:43.709Z,14.58
2018-07-03T04:47:36.722Z,14.59
2018-07-03T04:48:36.679Z,14.55
2018-07-03T04:50:29.698Z,14.58
2018-07-03T04:51:29.646Z,14.59
2018-07-03T04:53:22.457Z,14.45
2018-07-03T04:54:22.417Z,14.55
2018-07-03T04:56:15.384Z,14.65
2018-07-03T04:57:15.335Z,14.60
2018-07-03T04:59:08.291Z,14.63
2018-07-03T05:00:08.254Z,14.60
2018-07-03T05:02:01.080Z,14.70
2018-07-03T05:03:01.035Z,14.72
2018-07-03T05:04:54.028Z,14.73
2018-07-03T05:05:53.953Z,14.72
2018-07-03T05:07:46.955Z,14.79
2018-07-03T05:08:46.892Z,14.84
2018-07-03T05:10:39.837Z,14.85
2018-07-03T05:11:39.807Z,14.99
2018-07-03T05:13:32.960Z,14.99
2018-07-03T05:14:32.878Z,15.04
2018-07-03T05:16:25.855Z,15.00
2018-07-03T05:17:25.808Z,15.07
2018-07-03T05:19:18.772Z,15.17
2018-07-03T05:20:18.747Z,15.24
2018-07-03T05:22:11.836Z,15.19
2018-07-03T05:23:11.738Z,15.24
2018-07-03T05:25:04.693Z,15.31
2018-07-03T05:26:04.658Z,15.33
2018-07-03T05:27:57.642Z,15.36
2018-07-03T05:28:57.572Z,15.44
2018-07-03T05:30:50.631Z,15.49
2018-07-03T05:31:50.598Z,15.55
2018-07-03T05:33:43.582Z,15.46
2018-07-03T05:34:43.528Z,15.44
2018-07-03T05:36:36.482Z,15.57
2018-07-03T05:37:36.438Z,15.61
2018-07-03T05:39:29.627Z,15.62
2018-07-03T05:40:29.581Z,15.62
2018-07-03T05:42:22.614Z,15.70
2018-07-03T05:43:22.568Z,15.65
2018-07-03T05:45:15.697Z,15.75
2018-07-03T05:46:15.630Z,15.77
2018-07-03T05:48:08.613Z,15.86
2018-07-03T05:49:08.557Z,15.94
2018-07-03T05:51:01.373Z,16.00
2018-07-03T05:52:01.615Z,16.01
2018-07-03T05:53:54.504Z,16.05
2018-07-03T05:54:54.423Z,16.04
2018-07-03T05:56:47.398Z,16.17
2018-07-03T05:57:47.349Z,16.13
2018-07-03T05:59:40.330Z,16.21
2018-07-03T06:00:40.274Z,16.26
2018-07-03T06:02:33.443Z,16.31
2018-07-03T06:03:33.344Z,16.38
2018-07-03T06:05:26.335Z,16.42
2018-07-03T06:06:26.283Z,16.51
2018-07-03T06:08:19.240Z,16.56
2018-07-03T06:09:19.295Z,16.65
2018-07-03T06:11:12.146Z,16.72
2018-07-03T06:12:12.089Z,16.79
2018-07-03T06:14:05.071Z,16.89
2018-07-03T06:15:05.019Z,16.89
2018-07-03T06:16:57.999Z,16.97
2018-07-03T06:17:58.015Z,17.02
2018-07-03T06:19:51.170Z,17.11
2018-07-03T06:20:51.084Z,17.22
2018-07-03T06:22:44.107Z,17.24
2018-07-03T06:23:44.045Z,17.23
2018-07-03T06:25:37.042Z,17.39
2018-07-03T06:26:36.972Z,17.30
2018-07-03T06:28:29.801Z,17.52
2018-07-03T06:29:29.766Z,17.54
2018-07-03T06:31:22.760Z,17.63
2018-07-03T06:32:22.700Z,17.60
2018-07-03T06:34:15.705Z,17.78
2018-07-03T06:35:15.665Z,17.85
2018-07-03T06:37:08.891Z,17.90
2018-07-03T06:38:08.746Z,17.97
2018-07-03T06:40:01.708Z,18.03
2018-07-03T06:41:01.670Z,18.00
2018-07-03T06:42:54.667Z,18.08
2018-07-03T06:43:54.594Z,18.16
2018-07-03T06:45:47.451Z,18.25
2018-07-03T06:46:47.397Z,18.33
2018-07-03T06:48:40.393Z,18.34
2018-07-03T06:49:40.350Z,18.41
2018-07-03T06:51:33.190Z,18.56
2018-07-03T06:52:33.134Z,18.65
2018-07-03T06:54:26.104Z,18.75
2018-07-03T06:55:26.116Z,18.74
2018-07-03T06:57:19.221Z,18.81
2018-07-03T06:58:19.176Z,18.83
2018-07-03T07:00:11.995Z,18.90
2018-07-03T07:01:11.960Z,18.90
2018-07-03T07:03:04.945Z,19.11
2018-07-03T07:04:04.886Z,19.15
2018-07-03T07:05:58.111Z,19.29
2018-07-03T07:06:58.067Z,19.15
2018-07-03T07:08:51.173Z,19.41
2018-07-03T07:09:51.092Z,19.37
2018-07-03T07:11:43.849Z,19.58
2018-07-03T07:12:43.792Z,19.59
2018-07-03T07:14:36.631Z,19.69
2018-07-03T07:15:36.578Z,19.73
2018-07-03T07:17:29.595Z,19.91
2018-07-03T07:18:29.533Z,20.03
2018-07-03T07:20:22.498Z,20.16
2018-07-03T07:21:22.457Z,20.18
2018-07-03T07:23:15.483Z,20.32
2018-07-03T07:24:15.422Z,20.32
2018-07-03T07:26:08.387Z,20.41
2018-07-03T07:27:08.350Z,20.41
2018-07-03T07:29:01.327Z,20.58
2018-07-03T07:30:01.294Z,20.65
2018-07-03T07:31:54.112Z,20.72
2018-07-03T07:32:54.069Z,20.80
2018-07-03T07:34:47.277Z,20.92
2018-07-03T07:35:47.149Z,20.97
2018-07-03T07:37:40.119Z,21.07
2018-07-03T07:38:40.082Z,21.11
2018-07-03T07:40:33.068Z,21.21
2018-07-03T07:41:33.032Z,21.17
2018-07-03T07:43:25.843Z,21.25
2018-07-03T07:44:25.828Z,21.37
2018-07-03T07:46:18.858Z,21.42
2018-07-03T07:47:18.754Z,21.48
2018-07-03T07:49:11.724Z,21.54
2018-07-03T07:50:11.688Z,21.60
2018-07-03T07:52:04.530Z,21.69
2018-07-03T07:53:04.477Z,21.72
2018-07-03T07:54:57.421Z,21.73
2018-07-03T07:55:57.364Z,21.80
2018-07-03T07:57:50.362Z,21.91
2018-07-03T07:58:50.309Z,21.99
2018-07-03T08:00:43.274Z,21.92
2018-07-03T08:01:43.260Z,21.95
2018-07-03T08:03:36.444Z,22.17
2018-07-03T08:04:36.338Z,22.22
2018-07-03T08:06:29.359Z,22.23
2018-07-03T08:07:29.304Z,22.35
2018-07-03T08:09:22.268Z,22.39
2018-07-03T08:10:22.244Z,22.54
2018-07-03T08:12:15.130Z,22.51
2018-07-03T08:13:15.124Z,22.62
2018-07-03T08:15:08.093Z,22.73
2018-07-03T08:16:08.021Z,22.84
2018-07-03T08:18:01.030Z,22.94
2018-07-03T08:19:01.033Z,22.91
2018-07-03T08:20:54.224Z,22.94
2018-07-03T08:21:54.065Z,23.05
2018-07-03T08:23:47.044Z,23.20
2018-07-03T08:24:47.015Z,23.17
2018-07-03T08:26:40.049Z,23.34
2018-07-03T08:27:39.956Z,23.39
2018-07-03T08:29:32.777Z,23.44
2018-07-03T08:30:32.749Z,23.40
2018-07-03T08:32:25.761Z,23.47
2018-07-03T08:33:25.705Z,23.47
2018-07-03T08:35:18.684Z,23.63
2018-07-03T08:36:18.640Z,23.61
2018-07-03T08:38:11.879Z,23.74
2018-07-03T08:39:11.715Z,23.84
2018-07-03T08:41:04.563Z,23.78
2018-07-03T08:42:04.536Z,23.88
2018-07-03T08:43:57.529Z,23.99
2018-07-03T08:44:57.479Z,24.02
2018-07-03T08:46:50.720Z,24.01
2018-07-03T08:47:50.576Z,23.99
2018-07-03T08:49:43.570Z,24.06
2018-07-03T08:50:43.527Z,24.11
2018-07-03T08:52:36.636Z,24.26
2018-07-03T08:53:36.619Z,24.30
2018-07-03T08:55:29.596Z,24.30
2018-07-03T08:56:29.549Z,24.45
2018-07-03T08:58:23.534Z,24.48
2018-07-03T08:59:23.499Z,24.40
2018-07-03T09:01:16.520Z,24.53
2018-07-03T09:02:16.475Z,24.55
2018-07-03T09:04:09.447Z,24.57
2018-07-03T09:05:09.432Z,24.66
2018-07-03T09:07:03.431Z,24.63
2018-07-03T09:08:03.432Z,24.78
2018-07-03T09:09:56.620Z,24.86
2018-07-03T09:10:56.459Z,24.80
2018-07-03T09:12:49.446Z,24.95
2018-07-03T09:13:49.426Z,24.96
2018-07-03T09:15:42.415Z,25.06
2018-07-03T09:16:42.356Z,25.16
2018-07-03T09:18:35.290Z,25.10
2018-07-03T09:19:35.283Z,25.16
2018-07-03T09:21:28.263Z,25.25
2018-07-03T09:22:28.213Z,25.25
2018-07-03T09:24:21.191Z,25.41
2018-07-03T09:25:21.167Z,25.48
2018-07-03T09:27:14.302Z,25.54
2018-07-03T09:28:14.246Z,25.50
2018-07-03T09:30:07.090Z,25.54
2018-07-03T09:31:07.050Z,25.48
2018-07-03T09:33:00.025Z,25.66
2018-07-03T09:33:59.987Z,25.75
2018-07-03T09:35:53.181Z,25.81
2018-07-03T09:36:53.082Z,25.88
2018-07-03T09:38:46.063Z,25.88
2018-07-03T09:39:46.029Z,25.93
2018-07-03T09:41:39.037Z,26.07
2018-07-03T09:42:38.997Z,26.09
2018-07-03T09:44:31.887Z,26.07
2018-07-03T09:45:31.862Z,26.07
2018-07-03T09:47:24.847Z,26.21
2018-07-03T09:48:24.808Z,26.28
2018-07-03T09:50:17.799Z,26.47
2018-07-03T09:51:17.755Z,26.55
2018-07-03T09:53:10.923Z,26.70
2018-07-03T09:54:10.848Z,26.68
2018-07-03T09:56:03.866Z,26.80
2018-07-03T09:57:03.853Z,26.92
2018-07-03T09:58:56.877Z,27.03
2018-07-03T09:59:56.813Z,27.00
2018-07-03T10:01:49.772Z,27.25
2018-07-03T10:02:49.622Z,27.30
2018-07-03T10:04:42.613Z,27.51
2018-07-03T10:05:42.599Z,27.59
2018-07-03T10:07:35.603Z,28.07
2018-07-03T10:08:35.543Z,28.59
2018-07-03T10:10:28.419Z,29.24
2018-07-03T10:11:28.389Z,29.51
2018-07-03T10:13:21.421Z,30.30
2018-07-03T10:14:21.384Z,30.65
2018-07-03T10:16:14.384Z,31.40
2018-07-03T10:17:14.334Z,31.49
2018-07-03T10:19:07.406Z,31.33
2018-07-03T10:20:07.274Z,31.74
2018-07-03T10:22:00.130Z,32.86
2018-07-03T10:23:00.091Z,32.56
2018-07-03T10:24:53.094Z,33.17
2018-07-03T10:25:53.077Z,33.65
2018-07-03T10:27:46.249Z,34.54
2018-07-03T10:28:46.184Z,33.99
2018-07-03T10:30:39.186Z,34.11
2018-07-03T10:31:39.178Z,34.70
2018-07-03T10:33:32.169Z,35.37
2018-07-03T10:34:32.134Z,35.58
2018-07-03T10:36:25.023Z,36.21
2018-07-03T10:37:25.006Z,36.52
2018-07-03T10:39:18.034Z,36.96
2018-07-03T10:40:17.994Z,37.39
2018-07-03T10:42:10.990Z,37.86
2018-07-03T10:43:10.974Z,37.87
2018-07-03T10:45:04.070Z,38.02
2018-07-03T10:46:04.045Z,38.38
2018-07-03T10:47:57.031Z,38.60
2018-07-03T10:48:57.022Z,38.55
2018-07-03T10:50:49.881Z,38.14
2018-07-03T10:51:49.857Z,38.43
2018-07-03T10:53:42.748Z,38.62
2018-07-03T10:54:42.732Z,39.00
2018-07-03T10:56:35.756Z,39.09
2018-07-03T10:57:35.733Z,39.02
2018-07-03T10:59:28.766Z,39.49
2018-07-03T11:00:28.731Z,38.69
2018-07-03T11:02:21.738Z,38.80
2018-07-03T11:03:21.723Z,38.87
2018-07-03T11:05:14.732Z,39.36
2018-07-03T11:06:14.694Z,39.33
2018-07-03T11:08:07.960Z,38.60
2018-07-03T11:09:07.817Z,38.80
2018-07-03T11:11:00.818Z,39.46
2018-07-03T11:12:00.811Z,39.26
2018-07-03T11:13:53.902Z,38.74
2018-07-03T11:14:53.787Z,39.02
2018-07-03T11:16:46.863Z,39.71
2018-07-03T11:17:46.826Z,39.46
2018-07-03T11:19:39.914Z,38.23
2018-07-03T11:20:39.822Z,37.93
2018-07-03T11:22:33.040Z,37.82
2018-07-03T11:23:32.952Z,38.43
2018-07-03T11:25:26.006Z,39.63
2018-07-03T11:26:25.938Z,39.90
2018-07-03T11:28:18.954Z,40.28
2018-07-03T11:29:18.937Z,40.56
2018-07-03T11:31:11.813Z,40.44
2018-07-03T11:32:11.782Z,40.28
2018-07-03T11:34:04.777Z,40.43
2018-07-03T11:35:04.754Z,40.31
2018-07-03T11:36:57.783Z,40.11
2018-07-03T11:37:57.748Z,40.08
2018-07-03T11:39:50.797Z,40.72
2018-07-03T11:40:50.787Z,40.72
2018-07-03T11:42:43.814Z,40.85
2018-07-03T11:43:43.780Z,40.73
2018-07-03T11:45:36.635Z,40.44
2018-07-03T11:46:36.669Z,40.53
2018-07-03T11:48:29.510Z,40.68
2018-07-03T11:49:29.442Z,40.84
2018-07-03T11:51:22.296Z,40.47
2018-07-03T11:52:22.279Z,40.20
2018-07-03T11:54:15.308Z,40.27
2018-07-03T11:55:15.273Z,40.27
2018-07-03T11:57:08.482Z,40.46
2018-07-03T11:58:08.404Z,40.58
2018-07-03T12:00:01.403Z,40.21
2018-07-03T12:01:01.382Z,39.77
2018-07-03T12:02:54.408Z,39.87
2018-07-03T12:03:54.376Z,39.46
2018-07-03T12:05:47.388Z,39.17
2018-07-03T12:06:47.378Z,38.83
2018-07-03T12:08:40.380Z,39.18
2018-07-03T12:09:40.377Z,39.41
2018-07-03T12:11:33.212Z,39.59
2018-07-03T12:12:33.202Z,39.60
2018-07-03T12:14:26.239Z,39.78
2018-07-03T12:15:26.214Z,38.96
2018-07-03T12:17:19.229Z,39.18
2018-07-03T12:18:19.214Z,39.56
2018-07-03T12:20:12.428Z,38.92
2018-07-03T12:21:12.338Z,38.74
2018-07-03T12:23:05.368Z,38.65
2018-07-03T12:24:05.366Z,38.77
2018-07-03T12:25:58.572Z,39.46
2018-07-03T12:26:58.520Z,38.67
2018-07-03T12:28:51.591Z,38.43
2018-07-03T12:29:51.486Z,38.14
2018-07-03T12:31:44.357Z,38.60
2018-07-03T12:32:44.359Z,38.97
2018-07-03T12:34:37.534Z,39.70
2018-07-03T12:35:37.462Z,39.93
2018-07-03T12:37:30.476Z,40.09
2018-07-03T12:38:30.464Z,39.92
2018-07-03T12:40:23.641Z,40.50
2018-07-03T12:41:23.592Z,40.72
2018-07-03T12:43:16.616Z,40.65
2018-07-03T12:44:16.596Z,40.72
2018-07-03T12:46:09.831Z,41.00
2018-07-03T12:47:09.706Z,40.96
2018-07-03T12:49:02.750Z,41.33
2018-07-03T12:50:02.726Z,41.31
2018-07-03T12:51:55.591Z,40.58
2018-07-03T12:52:55.566Z,40.46
2018-07-03T12:54:48.782Z,40.56
2018-07-03T12:55:48.700Z,40.69
2018-07-03T12:57:41.712Z,41.06
2018-07-03T12:58:41.692Z,41.31
2018-07-03T13:00:34.716Z,41.29
2018-07-03T13:01:34.684Z,41.10
2018-07-03T13:03:27.676Z,41.25
2018-07-03T13:04:27.672Z,41.57
2018-07-03T13:06:20.692Z,41.97
2018-07-03T13:07:20.673Z,41.92
2018-07-03T13:09:13.537Z,41.92
2018-07-03T13:10:13.520Z,40.27
2018-07-03T13:12:06.549Z,41.19
2018-07-03T13:13:06.524Z,40.63
2018-07-03T13:14:59.376Z,38.52
2018-07-03T13:15:59.361Z,38.46
2018-07-03T13:17:52.381Z,37.87
2018-07-03T13:18:52.378Z,38.01
2018-07-03T13:20:45.383Z,38.24
2018-07-03T13:21:45.367Z,38.21
2018-07-03T13:23:38.371Z,38.34
2018-07-03T13:24:38.351Z,38.06
2018-07-03T13:26:31.551Z,38.58
2018-07-03T13:27:31.482Z,38.84
2018-07-03T13:29:24.522Z,38.83
2018-07-03T13:30:24.506Z,39.12
2018-07-03T13:32:17.528Z,39.51
2018-07-03T13:33:17.497Z,39.62
2018-07-03T13:35:10.504Z,39.97
2018-07-03T13:36:10.496Z,40.11
2018-07-03T13:38:03.517Z,40.06
2018-07-03T13:39:03.523Z,40.23
2018-07-03T13:40:56.337Z,40.62
2018-07-03T13:41:56.304Z,40.73
2018-07-03T13:43:49.368Z,40.75
2018-07-03T13:44:49.351Z,40.81
2018-07-03T13:46:42.377Z,40.70
2018-07-03T13:47:42.344Z,40.85
2018-07-03T13:49:35.556Z,40.82
2018-07-03T13:50:35.502Z,40.80
2018-07-03T13:52:28.514Z,40.46
2018-07-03T13:53:28.509Z,39.14
2018-07-03T13:55:21.372Z,38.62
2018-07-03T13:56:21.317Z,38.74
2018-07-03T13:58:14.183Z,38.99
2018-07-03T13:59:14.149Z,38.84
2018-07-03T14:01:07.023Z,38.89
2018-07-03T14:02:06.978Z,39.00
2018-07-03T14:03:59.988Z,39.25
2018-07-03T14:04:59.968Z,39.31
2018-07-03T14:06:53.079Z,39.26
2018-07-03T14:07:53.053Z,39.51
2018-07-03T14:09:46.074Z,39.72
2018-07-03T14:10:46.019Z,39.70
2018-07-03T14:12:39.061Z,40.12
2018-07-03T14:13:38.997Z,40.15
2018-07-03T14:15:32.060Z,39.41
2018-07-03T14:16:31.996Z,38.20
2018-07-03T14:18:25.028Z,38.80
2018-07-03T14:19:24.972Z,38.79
2018-07-03T14:21:17.981Z,39.38
2018-07-03T14:22:17.958Z,39.58
2018-07-03T14:24:10.845Z,39.92
2018-07-03T14:25:10.805Z,39.94
2018-07-03T14:27:03.815Z,40.31
2018-07-03T14:28:03.795Z,40.28
2018-07-03T14:29:56.809Z,39.74
2018-07-03T14:30:56.839Z,39.31
2018-07-03T14:32:49.848Z,39.00
2018-07-03T14:33:49.836Z,39.04
2018-07-03T14:35:42.674Z,39.33
2018-07-03T14:36:42.644Z,39.25
2018-07-03T14:38:35.673Z,39.75
2018-07-03T14:39:35.628Z,39.99
2018-07-03T14:41:28.463Z,39.93
2018-07-03T14:42:28.449Z,39.65
2018-07-03T14:44:21.474Z,39.31
2018-07-03T14:45:21.429Z,39.15
2018-07-03T14:47:14.430Z,38.30
2018-07-03T14:48:14.405Z,38.08
2018-07-03T14:50:07.276Z,37.94
2018-07-03T14:51:07.247Z,37.86
2018-07-03T14:53:00.261Z,38.06
2018-07-03T14:54:00.245Z,37.92
2018-07-03T14:55:53.271Z,38.09
2018-07-03T14:56:53.241Z,38.06
2018-07-03T14:58:46.402Z,37.84
2018-07-03T14:59:46.362Z,37.86
2018-07-03T15:01:39.387Z,37.72
2018-07-03T15:02:39.350Z,37.78
2018-07-03T15:04:32.580Z,38.30
2018-07-03T15:05:32.460Z,38.46
2018-07-03T15:07:25.484Z,38.89
2018-07-03T15:08:25.466Z,38.86
2018-07-03T15:10:18.486Z,38.65
2018-07-03T15:11:18.425Z,38.48
2018-07-03T15:13:11.291Z,38.12
2018-07-03T15:14:11.283Z,37.87
2018-07-03T15:16:04.298Z,37.87
2018-07-03T15:17:04.262Z,38.08
2018-07-03T15:18:57.251Z,38.24
2018-07-03T15:19:57.228Z,38.08
2018-07-03T15:21:50.172Z,38.40
2018-07-03T15:22:50.136Z,38.58
2018-07-03T15:24:43.226Z,38.54
2018-07-03T15:25:43.208Z,38.87
2018-07-03T15:27:36.212Z,39.37
2018-07-03T15:28:36.170Z,39.58
2018-07-03T15:30:29.014Z,39.58
2018-07-03T15:31:28.997Z,39.70
2018-07-03T15:33:22.021Z,39.25
2018-07-03T15:34:22.019Z,39.06
2018-07-03T15:36:14.998Z,39.29
2018-07-03T15:37:14.966Z,39.41
2018-07-03T15:39:07.945Z,39.21
2018-07-03T15:40:07.863Z,39.26
2018-07-03T15:42:00.862Z,38.42
2018-07-03T15:43:00.848Z,38.55
2018-07-03T15:44:53.715Z,39.14
2018-07-03T15:45:53.667Z,38.95
2018-07-03T15:47:47.022Z,38.62
2018-07-03T15:48:46.783Z,38.06
2018-07-03T15:50:39.808Z,37.87
2018-07-03T15:51:39.797Z,37.93
2018-07-03T15:53:32.963Z,37.26
2018-07-03T15:54:32.922Z,37.15
2018-07-03T15:56:25.900Z,36.99
2018-07-03T15:57:25.879Z,37.07
2018-07-03T15:59:18.895Z,37.48
2018-07-03T16:00:18.852Z,37.45
2018-07-03T16:02:11.789Z,36.88
2018-07-03T16:03:11.779Z,36.39
2018-07-03T16:05:04.775Z,37.21
2018-07-03T16:06:04.747Z,37.70
2018-07-03T16:07:57.748Z,37.96
2018-07-03T16:08:57.725Z,37.78
2018-07-03T16:10:50.599Z,38.15
2018-07-03T16:11:50.555Z,38.11
2018-07-03T16:13:43.560Z,38.19
2018-07-03T16:14:43.539Z,38.30
2018-07-03T16:16:36.539Z,37.72
2018-07-03T16:17:36.508Z,37.56
2018-07-03T16:19:29.692Z,37.02
2018-07-03T16:20:29.648Z,36.54
2018-07-03T16:22:22.655Z,36.52
2018-07-03T16:23:22.740Z,36.83
2018-07-03T16:25:15.984Z,37.44
2018-07-03T16:26:15.759Z,37.14
2018-07-03T16:28:08.755Z,36.70
2018-07-03T16:29:08.724Z,36.83
2018-07-03T16:31:01.746Z,36.61
2018-07-03T16:32:01.700Z,36.70
2018-07-03T16:33:54.613Z,36.65
2018-07-03T16:34:54.587Z,36.68
2018-07-03T16:36:47.612Z,37.03
2018-07-03T16:37:47.560Z,37.26
2018-07-03T16:39:40.584Z,37.15
2018-07-03T16:40:40.536Z,36.93
2018-07-03T16:42:33.382Z,37.06
2018-07-03T16:43:33.364Z,37.11
2018-07-03T16:45:26.473Z,37.21
2018-07-03T16:46:26.337Z,37.44
2018-07-03T16:48:19.346Z,37.64
2018-07-03T16:49:19.325Z,37.21
2018-07-03T16:51:12.192Z,37.21
2018-07-03T16:52:12.154Z,37.17
2018-07-03T16:54:05.164Z,37.29
2018-07-03T16:55:05.145Z,37.29
2018-07-03T16:56:58.157Z,37.32
2018-07-03T16:57:58.116Z,37.14
2018-07-03T16:59:51.296Z,36.46
2018-07-03T17:00:51.220Z,36.61
2018-07-03T17:02:44.250Z,36.65
2018-07-03T17:03:44.216Z,36.45
2018-07-03T17:05:37.250Z,36.62
2018-07-03T17:06:37.201Z,36.70
2018-07-03T17:08:30.189Z,35.97
2018-07-03T17:09:30.222Z,35.11
2018-07-03T17:11:24.183Z,34.74
2018-07-03T17:12:24.136Z,34.55
2018-07-03T17:14:17.351Z,34.66
2018-07-03T17:15:17.260Z,34.70
2018-07-03T17:17:10.282Z,34.70
2018-07-03T17:18:10.234Z,34.57
2018-07-03T17:20:03.231Z,34.45
2018-07-03T17:21:03.204Z,34.38
2018-07-03T17:22:56.057Z,33.86
2018-07-03T17:23:56.018Z,33.74
2018-07-03T17:25:48.997Z,33.47
2018-07-03T17:26:48.986Z,33.40
2018-07-03T17:28:41.997Z,33.12
2018-07-03T17:29:41.957Z,32.92
2018-07-03T17:31:35.126Z,32.51
2018-07-03T17:32:34.956Z,32.43
2018-07-03T17:34:27.969Z,32.33
2018-07-03T17:35:27.964Z,32.34
2018-07-03T17:37:20.782Z,32.26
2018-07-03T17:38:20.743Z,32.23
2018-07-03T17:40:13.887Z,32.12
2018-07-03T17:41:13.851Z,32.15
2018-07-03T17:43:06.863Z,31.92
2018-07-03T17:44:06.844Z,31.90
2018-07-03T17:45:59.803Z,31.96
2018-07-03T17:46:59.790Z,32.00
2018-07-03T17:48:52.641Z,32.14
2018-07-03T17:49:52.594Z,32.30
2018-07-03T17:51:45.598Z,32.37
2018-07-03T17:52:45.554Z,32.45
2018-07-03T17:54:38.564Z,32.34
2018-07-03T17:55:38.537Z,32.14
2018-07-03T17:57:31.371Z,32.33
2018-07-03T17:58:31.321Z,32.27
2018-07-03T18:00:24.378Z,32.04
2018-07-03T18:01:24.338Z,31.99
2018-07-03T18:03:17.337Z,31.78
2018-07-03T18:04:17.314Z,31.76
2018-07-03T18:06:10.489Z,31.65
2018-07-03T18:07:10.408Z,31.47
2018-07-03T18:09:03.250Z,31.46
2018-07-03T18:10:03.227Z,31.37
2018-07-03T18:11:56.224Z,31.27
2018-07-03T18:12:56.187Z,31.18
2018-07-03T18:14:49.398Z,31.33
2018-07-03T18:15:49.312Z,31.28
2018-07-03T18:17:42.309Z,30.97
2018-07-03T18:18:42.285Z,30.99
2018-07-03T18:20:35.302Z,30.96
2018-07-03T18:21:35.253Z,30.96
2018-07-03T18:23:28.069Z,30.91
2018-07-03T18:24:28.050Z,30.92
2018-07-03T18:26:21.034Z,30.72
2018-07-03T18:27:21.042Z,30.61
2018-07-03T18:29:13.998Z,30.40
2018-07-03T18:30:13.935Z,30.40
2018-07-03T18:32:06.799Z,30.37
2018-07-03T18:33:06.775Z,30.43